sensor_id;sensor_type;location;lat;lon;timestamp;temperature;humidity
50758;DHT22;36732;47.980;11.652;2024-02-16T00:00:07;9.90;58.80
50758;DHT22;36732;47.980;11.652;2024-02-16T00:02:33;9.90;58.70
50758;DHT22;36732;47.980;11.652;2024-02-16T00:04:58;9.90;58.60
50758;DHT22;36732;47.980;11.652;2024-02-16T00:07:24;9.90;58.50
50758;DHT22;36732;47.980;11.652;2024-02-16T00:09:50;9.90;58.50
50758;DHT22;36732;47.980;11.652;2024-02-16T00:12:16;9.90;58.40
50758;DHT22;36732;47.980;11.652;2024-02-16T00:14:42;9.90;58.50
50758;DHT22;36732;47.980;11.652;2024-02-16T00:17:08;9.90;58.50
50758;DHT22;36732;47.980;11.652;2024-02-16T00:19:35;9.90;58.50
50758;DHT22;36732;47.980;11.652;2024-02-16T00:22:01;9.90;58.40
50758;DHT22;36732;47.980;11.652;2024-02-16T00:24:27;9.90;58.40
50758;DHT22;36732;47.980;11.652;2024-02-16T00:26:53;9.80;58.30
50758;DHT22;36732;47.980;11.652;2024-02-16T00:29:19;9.90;58.40
50758;DHT22;36732;47.980;11.652;2024-02-16T00:31:44;9.80;58.20
50758;DHT22;36732;47.980;11.652;2024-02-16T00:34:11;9.80;58.20
50758;DHT22;36732;47.980;11.652;2024-02-16T00:36:36;9.80;58.20
50758;DHT22;36732;47.980;11.652;2024-02-16T00:39:02;9.80;58.20
50758;DHT22;36732;47.980;11.652;2024-02-16T00:41:29;9.80;58.30
50758;DHT22;36732;47.980;11.652;2024-02-16T00:43:54;9.80;58.30
50758;DHT22;36732;47.980;11.652;2024-02-16T00:46:21;9.80;58.30
50758;DHT22;36732;47.980;11.652;2024-02-16T00:48:51;9.80;58.20
50758;DHT22;36732;47.980;11.652;2024-02-16T00:51:18;9.80;58.20
50758;DHT22;36732;47.980;11.652;2024-02-16T00:53:43;9.80;58.00
50758;DHT22;36732;47.980;11.652;2024-02-16T00:56:09;9.80;58.30
50758;DHT22;36732;47.980;11.652;2024-02-16T00:58:35;9.80;57.90
50758;DHT22;36732;47.980;11.652;2024-02-16T01:01:01;9.80;57.80
50758;DHT22;36732;47.980;11.652;2024-02-16T01:03:29;9.80;57.60
50758;DHT22;36732;47.980;11.652;2024-02-16T01:05:55;9.70;57.50
50758;DHT22;36732;47.980;11.652;2024-02-16T01:08:20;9.70;57.40
50758;DHT22;36732;47.980;11.652;2024-02-16T01:10:46;9.70;57.30
50758;DHT22;36732;47.980;11.652;2024-02-16T01:13:12;9.70;57.20
50758;DHT22;36732;47.980;11.652;2024-02-16T01:15:38;9.70;57.10
50758;DHT22;36732;47.980;11.652;2024-02-16T01:18:05;9.60;57.00
50758;DHT22;36732;47.980;11.652;2024-02-16T01:20:30;9.60;57.00
50758;DHT22;36732;47.980;11.652;2024-02-16T01:22:57;9.60;56.90
50758;DHT22;36732;47.980;11.652;2024-02-16T01:25:23;9.50;56.90
50758;DHT22;36732;47.980;11.652;2024-02-16T01:27:48;9.50;56.90
50758;DHT22;36732;47.980;11.652;2024-02-16T01:30:14;9.50;57.00
50758;DHT22;36732;47.980;11.652;2024-02-16T01:32:41;9.50;57.00
50758;DHT22;36732;47.980;11.652;2024-02-16T01:35:07;9.50;57.00
50758;DHT22;36732;47.980;11.652;2024-02-16T01:37:33;9.40;56.90
50758;DHT22;36732;47.980;11.652;2024-02-16T01:39:58;9.40;56.80
50758;DHT22;36732;47.980;11.652;2024-02-16T01:42:24;9.40;56.90
50758;DHT22;36732;47.980;11.652;2024-02-16T01:44:50;9.40;57.00
50758;DHT22;36732;47.980;11.652;2024-02-16T01:47:16;9.40;57.00
50758;DHT22;36732;47.980;11.652;2024-02-16T01:49:44;9.40;56.90
50758;DHT22;36732;47.980;11.652;2024-02-16T01:52:10;9.40;56.90
50758;DHT22;36732;47.980;11.652;2024-02-16T01:54:36;9.30;56.90
50758;DHT22;36732;47.980;11.652;2024-02-16T01:57:05;9.30;57.00
50758;DHT22;36732;47.980;11.652;2024-02-16T01:59:31;9.30;57.10
50758;DHT22;36732;47.980;11.652;2024-02-16T02:01:59;9.30;57.10
50758;DHT22;36732;47.980;11.652;2024-02-16T02:04:26;9.30;57.80
50758;DHT22;36732;47.980;11.652;2024-02-16T02:06:52;9.30;57.20
50758;DHT22;36732;47.980;11.652;2024-02-16T02:09:17;9.30;57.20
50758;DHT22;36732;47.980;11.652;2024-02-16T02:11:44;9.20;57.10
50758;DHT22;36732;47.980;11.652;2024-02-16T02:14:10;9.20;57.10
50758;DHT22;36732;47.980;11.652;2024-02-16T02:16:35;9.20;57.10
50758;DHT22;36732;47.980;11.652;2024-02-16T02:19:02;9.20;57.10
50758;DHT22;36732;47.980;11.652;2024-02-16T02:21:28;9.20;57.10
50758;DHT22;36732;47.980;11.652;2024-02-16T02:23:54;9.20;57.30
50758;DHT22;36732;47.980;11.652;2024-02-16T02:26:20;9.20;57.30
50758;DHT22;36732;47.980;11.652;2024-02-16T02:28:46;9.20;57.40
50758;DHT22;36732;47.980;11.652;2024-02-16T02:31:12;9.20;57.40
50758;DHT22;36732;47.980;11.652;2024-02-16T02:33:38;9.20;57.50
50758;DHT22;36732;47.980;11.652;2024-02-16T02:36:04;9.20;57.60
50758;DHT22;36732;47.980;11.652;2024-02-16T02:38:30;9.20;57.70
50758;DHT22;36732;47.980;11.652;2024-02-16T02:40:56;9.20;57.70
50758;DHT22;36732;47.980;11.652;2024-02-16T02:43:22;9.20;57.70
50758;DHT22;36732;47.980;11.652;2024-02-16T02:45:48;9.20;57.80
50758;DHT22;36732;47.980;11.652;2024-02-16T02:48:14;9.20;57.80
50758;DHT22;36732;47.980;11.652;2024-02-16T02:50:40;9.20;57.90
50758;DHT22;36732;47.980;11.652;2024-02-16T02:53:05;9.20;57.80
50758;DHT22;36732;47.980;11.652;2024-02-16T02:55:31;9.20;57.90
50758;DHT22;36732;47.980;11.652;2024-02-16T02:57:57;9.20;57.80
50758;DHT22;36732;47.980;11.652;2024-02-16T03:00:23;9.20;57.90
50758;DHT22;36732;47.980;11.652;2024-02-16T03:02:49;9.20;58.00
50758;DHT22;36732;47.980;11.652;2024-02-16T03:05:15;9.20;58.00
50758;DHT22;36732;47.980;11.652;2024-02-16T03:07:40;9.20;58.00
50758;DHT22;36732;47.980;11.652;2024-02-16T03:10:07;9.20;58.00
50758;DHT22;36732;47.980;11.652;2024-02-16T03:12:35;9.20;58.00
50758;DHT22;36732;47.980;11.652;2024-02-16T03:15:01;9.20;58.10
50758;DHT22;36732;47.980;11.652;2024-02-16T03:17:27;9.20;58.10
50758;DHT22;36732;47.980;11.652;2024-02-16T03:19:52;9.20;58.10
50758;DHT22;36732;47.980;11.652;2024-02-16T03:22:18;9.20;58.90
50758;DHT22;36732;47.980;11.652;2024-02-16T03:24:44;9.20;58.20
50758;DHT22;36732;47.980;11.652;2024-02-16T03:27:10;9.10;58.10
50758;DHT22;36732;47.980;11.652;2024-02-16T03:29:37;9.20;58.20
50758;DHT22;36732;47.980;11.652;2024-02-16T03:32:03;9.20;58.20
50758;DHT22;36732;47.980;11.652;2024-02-16T03:34:29;9.20;58.30
50758;DHT22;36732;47.980;11.652;2024-02-16T03:36:55;9.20;58.30
50758;DHT22;36732;47.980;11.652;2024-02-16T03:39:21;9.20;58.40
50758;DHT22;36732;47.980;11.652;2024-02-16T03:41:47;9.10;58.40
50758;DHT22;36732;47.980;11.652;2024-02-16T03:44:14;9.20;58.50
50758;DHT22;36732;47.980;11.652;2024-02-16T03:46:41;9.20;58.50
50758;DHT22;36732;47.980;11.652;2024-02-16T03:49:08;9.10;58.50
50758;DHT22;36732;47.980;11.652;2024-02-16T03:51:35;9.10;58.60
50758;DHT22;36732;47.980;11.652;2024-02-16T03:54:01;9.10;58.60
50758;DHT22;36732;47.980;11.652;2024-02-16T03:56:28;9.10;58.80
50758;DHT22;36732;47.980;11.652;2024-02-16T03:58:53;9.10;58.80
50758;DHT22;36732;47.980;11.652;2024-02-16T04:01:19;9.10;58.80
50758;DHT22;36732;47.980;11.652;2024-02-16T04:03:45;9.10;58.80
50758;DHT22;36732;47.980;11.652;2024-02-16T04:06:10;9.10;58.90
50758;DHT22;36732;47.980;11.652;2024-02-16T04:08:36;9.10;58.90
50758;DHT22;36732;47.980;11.652;2024-02-16T04:11:02;9.10;58.90
50758;DHT22;36732;47.980;11.652;2024-02-16T04:13:28;9.10;58.90
50758;DHT22;36732;47.980;11.652;2024-02-16T04:15:53;9.10;59.00
50758;DHT22;36732;47.980;11.652;2024-02-16T04:18:19;9.10;58.90
50758;DHT22;36732;47.980;11.652;2024-02-16T04:20:45;9.10;58.90
50758;DHT22;36732;47.980;11.652;2024-02-16T04:23:10;9.10;59.00
50758;DHT22;36732;47.980;11.652;2024-02-16T04:25:36;9.10;58.90
50758;DHT22;36732;47.980;11.652;2024-02-16T04:28:02;9.10;59.00
50758;DHT22;36732;47.980;11.652;2024-02-16T04:30:28;9.10;59.00
50758;DHT22;36732;47.980;11.652;2024-02-16T04:32:53;9.10;59.00
50758;DHT22;36732;47.980;11.652;2024-02-16T04:35:19;9.10;59.00
50758;DHT22;36732;47.980;11.652;2024-02-16T04:37:45;9.10;59.00
50758;DHT22;36732;47.980;11.652;2024-02-16T04:40:11;9.10;59.00
50758;DHT22;36732;47.980;11.652;2024-02-16T04:42:39;9.10;59.00
50758;DHT22;36732;47.980;11.652;2024-02-16T04:45:11;9.10;58.90
50758;DHT22;36732;47.980;11.652;2024-02-16T04:47:38;9.10;59.00
50758;DHT22;36732;47.980;11.652;2024-02-16T04:50:04;9.10;59.10
50758;DHT22;36732;47.980;11.652;2024-02-16T04:52:31;9.10;58.90
50758;DHT22;36732;47.980;11.652;2024-02-16T04:54:56;9.10;58.90
50758;DHT22;36732;47.980;11.652;2024-02-16T04:57:22;9.10;58.90
50758;DHT22;36732;47.980;11.652;2024-02-16T04:59:48;9.10;59.00
50758;DHT22;36732;47.980;11.652;2024-02-16T05:02:13;9.10;59.10
50758;DHT22;36732;47.980;11.652;2024-02-16T05:04:39;9.10;59.00
50758;DHT22;36732;47.980;11.652;2024-02-16T05:07:05;9.10;59.00
50758;DHT22;36732;47.980;11.652;2024-02-16T05:09:32;9.10;59.10
50758;DHT22;36732;47.980;11.652;2024-02-16T05:11:58;9.10;59.20
50758;DHT22;36732;47.980;11.652;2024-02-16T05:14:23;9.10;59.10
50758;DHT22;36732;47.980;11.652;2024-02-16T05:16:49;9.10;59.10
50758;DHT22;36732;47.980;11.652;2024-02-16T05:19:16;9.10;59.20
50758;DHT22;36732;47.980;11.652;2024-02-16T05:21:42;9.10;59.20
50758;DHT22;36732;47.980;11.652;2024-02-16T05:24:07;9.10;59.20
50758;DHT22;36732;47.980;11.652;2024-02-16T05:26:33;9.10;59.20
50758;DHT22;36732;47.980;11.652;2024-02-16T05:28:59;9.10;59.30
50758;DHT22;36732;47.980;11.652;2024-02-16T05:31:25;9.10;59.40
50758;DHT22;36732;47.980;11.652;2024-02-16T05:33:51;9.10;59.40
50758;DHT22;36732;47.980;11.652;2024-02-16T05:36:18;9.10;59.50
50758;DHT22;36732;47.980;11.652;2024-02-16T05:38:46;9.00;59.50
50758;DHT22;36732;47.980;11.652;2024-02-16T05:41:12;9.10;59.70
50758;DHT22;36732;47.980;11.652;2024-02-16T05:43:38;9.10;59.60
50758;DHT22;36732;47.980;11.652;2024-02-16T05:46:04;9.10;59.70
50758;DHT22;36732;47.980;11.652;2024-02-16T05:48:35;9.10;59.80
50758;DHT22;36732;47.980;11.652;2024-02-16T05:51:05;9.10;59.80
50758;DHT22;36732;47.980;11.652;2024-02-16T05:53:32;9.10;59.90
50758;DHT22;36732;47.980;11.652;2024-02-16T05:55:59;9.10;59.90
50758;DHT22;36732;47.980;11.652;2024-02-16T05:58:25;9.10;59.90
50758;DHT22;36732;47.980;11.652;2024-02-16T06:00:51;9.10;60.00
50758;DHT22;36732;47.980;11.652;2024-02-16T06:03:17;9.10;60.00
50758;DHT22;36732;47.980;11.652;2024-02-16T06:05:43;9.10;60.10
50758;DHT22;36732;47.980;11.652;2024-02-16T06:08:12;9.10;60.10
50758;DHT22;36732;47.980;11.652;2024-02-16T06:10:38;9.10;60.10
50758;DHT22;36732;47.980;11.652;2024-02-16T06:13:05;9.10;60.20
50758;DHT22;36732;47.980;11.652;2024-02-16T06:15:31;9.10;60.20
50758;DHT22;36732;47.980;11.652;2024-02-16T06:18:00;9.10;60.20
50758;DHT22;36732;47.980;11.652;2024-02-16T06:20:26;9.10;60.20
50758;DHT22;36732;47.980;11.652;2024-02-16T06:22:52;9.10;60.30
50758;DHT22;36732;47.980;11.652;2024-02-16T06:25:17;9.20;60.40
50758;DHT22;36732;47.980;11.652;2024-02-16T06:27:44;9.20;60.40
50758;DHT22;36732;47.980;11.652;2024-02-16T06:30:10;9.10;60.40
50758;DHT22;36732;47.980;11.652;2024-02-16T06:32:39;9.10;60.40
50758;DHT22;36732;47.980;11.652;2024-02-16T06:35:06;9.20;60.60
50758;DHT22;36732;47.980;11.652;2024-02-16T06:37:36;9.20;61.20
50758;DHT22;36732;47.980;11.652;2024-02-16T06:40:06;9.10;60.60
50758;DHT22;36732;47.980;11.652;2024-02-16T06:42:35;9.20;60.70
50758;DHT22;36732;47.980;11.652;2024-02-16T06:45:01;9.20;60.70
50758;DHT22;36732;47.980;11.652;2024-02-16T06:47:28;9.10;60.80
50758;DHT22;36732;47.980;11.652;2024-02-16T06:49:54;9.20;60.90
50758;DHT22;36732;47.980;11.652;2024-02-16T06:52:20;9.20;60.90
50758;DHT22;36732;47.980;11.652;2024-02-16T06:54:46;9.20;61.10
50758;DHT22;36732;47.980;11.652;2024-02-16T06:57:11;9.20;61.10
50758;DHT22;36732;47.980;11.652;2024-02-16T06:59:37;9.20;61.30
50758;DHT22;36732;47.980;11.652;2024-02-16T07:02:03;9.20;61.40
50758;DHT22;36732;47.980;11.652;2024-02-16T07:04:29;9.20;61.30
50758;DHT22;36732;47.980;11.652;2024-02-16T07:06:54;9.20;61.50
50758;DHT22;36732;47.980;11.652;2024-02-16T07:09:20;9.20;61.60
50758;DHT22;36732;47.980;11.652;2024-02-16T07:11:47;9.30;61.80
50758;DHT22;36732;47.980;11.652;2024-02-16T07:14:15;9.30;61.80
50758;DHT22;36732;47.980;11.652;2024-02-16T07:16:41;9.30;61.90
50758;DHT22;36732;47.980;11.652;2024-02-16T07:19:08;9.30;62.60
50758;DHT22;36732;47.980;11.652;2024-02-16T07:21:34;9.30;62.00
50758;DHT22;36732;47.980;11.652;2024-02-16T07:23:59;9.30;62.10
50758;DHT22;36732;47.980;11.652;2024-02-16T07:26:25;9.40;62.10
50758;DHT22;36732;47.980;11.652;2024-02-16T07:28:51;9.40;62.00
50758;DHT22;36732;47.980;11.652;2024-02-16T07:31:16;9.40;62.00
50758;DHT22;36732;47.980;11.652;2024-02-16T07:33:43;9.40;61.90
50758;DHT22;36732;47.980;11.652;2024-02-16T07:36:09;9.40;61.90
50758;DHT22;36732;47.980;11.652;2024-02-16T07:38:35;9.40;61.80
50758;DHT22;36732;47.980;11.652;2024-02-16T07:41:01;9.50;61.90
50758;DHT22;36732;47.980;11.652;2024-02-16T07:43:28;9.50;61.90
50758;DHT22;36732;47.980;11.652;2024-02-16T07:45:53;9.50;62.00
50758;DHT22;36732;47.980;11.652;2024-02-16T07:48:20;9.50;62.20
50758;DHT22;36732;47.980;11.652;2024-02-16T07:50:47;9.60;62.40
50758;DHT22;36732;47.980;11.652;2024-02-16T07:53:13;9.60;62.40
50758;DHT22;36732;47.980;11.652;2024-02-16T07:55:39;9.60;62.50
50758;DHT22;36732;47.980;11.652;2024-02-16T07:58:05;9.60;62.60
50758;DHT22;36732;47.980;11.652;2024-02-16T08:00:31;9.60;62.70
50758;DHT22;36732;47.980;11.652;2024-02-16T08:02:56;9.70;62.80
50758;DHT22;36732;47.980;11.652;2024-02-16T08:05:22;9.70;62.80
50758;DHT22;36732;47.980;11.652;2024-02-16T08:07:49;9.70;62.80
50758;DHT22;36732;47.980;11.652;2024-02-16T08:10:18;9.80;62.80
50758;DHT22;36732;47.980;11.652;2024-02-16T08:12:46;9.80;62.90
50758;DHT22;36732;47.980;11.652;2024-02-16T08:15:12;9.80;63.10
50758;DHT22;36732;47.980;11.652;2024-02-16T08:17:40;9.80;63.30
50758;DHT22;36732;47.980;11.652;2024-02-16T08:20:06;9.80;63.60
50758;DHT22;36732;47.980;11.652;2024-02-16T08:22:32;9.90;63.80
50758;DHT22;36732;47.980;11.652;2024-02-16T08:24:59;9.90;63.90
50758;DHT22;36732;47.980;11.652;2024-02-16T08:27:25;9.90;64.00
50758;DHT22;36732;47.980;11.652;2024-02-16T08:29:50;9.90;64.10
50758;DHT22;36732;47.980;11.652;2024-02-16T08:32:19;10.00;64.20
50758;DHT22;36732;47.980;11.652;2024-02-16T08:34:46;10.00;64.30
50758;DHT22;36732;47.980;11.652;2024-02-16T08:37:14;10.00;64.30
50758;DHT22;36732;47.980;11.652;2024-02-16T08:39:39;10.00;64.30
50758;DHT22;36732;47.980;11.652;2024-02-16T08:42:06;10.10;64.60
50758;DHT22;36732;47.980;11.652;2024-02-16T08:44:34;10.10;64.70
50758;DHT22;36732;47.980;11.652;2024-02-16T08:47:00;10.10;64.70
50758;DHT22;36732;47.980;11.652;2024-02-16T08:49:26;10.20;64.70
50758;DHT22;36732;47.980;11.652;2024-02-16T08:51:52;10.20;64.70
50758;DHT22;36732;47.980;11.652;2024-02-16T08:54:17;10.20;64.70
50758;DHT22;36732;47.980;11.652;2024-02-16T08:56:45;10.20;64.80
50758;DHT22;36732;47.980;11.652;2024-02-16T08:59:10;10.30;64.80
50758;DHT22;36732;47.980;11.652;2024-02-16T09:01:37;10.30;64.80
50758;DHT22;36732;47.980;11.652;2024-02-16T09:04:04;10.30;64.70
50758;DHT22;36732;47.980;11.652;2024-02-16T09:06:31;10.40;64.70
50758;DHT22;36732;47.980;11.652;2024-02-16T09:08:56;10.40;64.70
50758;DHT22;36732;47.980;11.652;2024-02-16T09:11:23;10.40;64.70
50758;DHT22;36732;47.980;11.652;2024-02-16T09:13:49;10.40;64.70
50758;DHT22;36732;47.980;11.652;2024-02-16T09:16:15;10.40;64.50
50758;DHT22;36732;47.980;11.652;2024-02-16T09:18:41;10.50;64.40
50758;DHT22;36732;47.980;11.652;2024-02-16T09:21:07;10.50;64.40
50758;DHT22;36732;47.980;11.652;2024-02-16T09:23:34;10.50;64.40
50758;DHT22;36732;47.980;11.652;2024-02-16T09:26:01;10.60;64.30
50758;DHT22;36732;47.980;11.652;2024-02-16T09:28:30;10.60;64.10
50758;DHT22;36732;47.980;11.652;2024-02-16T09:30:56;10.60;63.90
50758;DHT22;36732;47.980;11.652;2024-02-16T09:33:22;10.70;63.90
50758;DHT22;36732;47.980;11.652;2024-02-16T09:35:49;10.70;63.90
50758;DHT22;36732;47.980;11.652;2024-02-16T09:38:16;10.70;63.80
50758;DHT22;36732;47.980;11.652;2024-02-16T09:40:42;10.70;63.60
50758;DHT22;36732;47.980;11.652;2024-02-16T09:43:08;10.80;63.60
50758;DHT22;36732;47.980;11.652;2024-02-16T09:45:33;10.80;63.60
50758;DHT22;36732;47.980;11.652;2024-02-16T09:47:59;10.80;63.40
50758;DHT22;36732;47.980;11.652;2024-02-16T09:50:27;10.90;63.10
50758;DHT22;36732;47.980;11.652;2024-02-16T09:52:56;10.90;62.90
50758;DHT22;36732;47.980;11.652;2024-02-16T09:55:22;10.90;62.60
50758;DHT22;36732;47.980;11.652;2024-02-16T09:58:01;10.90;62.60
50758;DHT22;36732;47.980;11.652;2024-02-16T10:00:27;11.00;62.50
50758;DHT22;36732;47.980;11.652;2024-02-16T10:02:53;11.00;62.40
50758;DHT22;36732;47.980;11.652;2024-02-16T10:05:22;11.10;62.40
50758;DHT22;36732;47.980;11.652;2024-02-16T10:07:48;11.10;62.10
50758;DHT22;36732;47.980;11.652;2024-02-16T10:13:05;11.10;61.80
50758;DHT22;36732;47.980;11.652;2024-02-16T10:15:34;11.20;61.90
50758;DHT22;36732;47.980;11.652;2024-02-16T10:18:06;11.20;61.90
50758;DHT22;36732;47.980;11.652;2024-02-16T10:20:34;11.30;61.60
50758;DHT22;36732;47.980;11.652;2024-02-16T10:25:29;11.30;61.20
50758;DHT22;36732;47.980;11.652;2024-02-16T10:27:56;11.30;61.10
50758;DHT22;36732;47.980;11.652;2024-02-16T10:30:26;11.40;60.90
50758;DHT22;36732;47.980;11.652;2024-02-16T10:32:55;11.40;60.80
50758;DHT22;36732;47.980;11.652;2024-02-16T10:35:24;11.50;60.60
50758;DHT22;36732;47.980;11.652;2024-02-16T10:37:50;11.50;60.40
50758;DHT22;36732;47.980;11.652;2024-02-16T10:40:18;11.50;60.50
50758;DHT22;36732;47.980;11.652;2024-02-16T10:42:49;11.60;60.30
50758;DHT22;36732;47.980;11.652;2024-02-16T10:45:18;11.60;60.00
50758;DHT22;36732;47.980;11.652;2024-02-16T10:47:45;11.60;60.10
50758;DHT22;36732;47.980;11.652;2024-02-16T10:50:11;11.70;60.00
50758;DHT22;36732;47.980;11.652;2024-02-16T10:52:39;11.70;59.90
50758;DHT22;36732;47.980;11.652;2024-02-16T10:55:07;11.70;59.80
50758;DHT22;36732;47.980;11.652;2024-02-16T10:57:36;11.80;59.80
50758;DHT22;36732;47.980;11.652;2024-02-16T11:00:10;11.80;59.60
50758;DHT22;36732;47.980;11.652;2024-02-16T11:02:53;11.80;59.60
50758;DHT22;36732;47.980;11.652;2024-02-16T11:05:41;11.80;59.40
50758;DHT22;36732;47.980;11.652;2024-02-16T11:08:20;11.90;59.40
50758;DHT22;36732;47.980;11.652;2024-02-16T11:10:59;11.90;59.50
50758;DHT22;36732;47.980;11.652;2024-02-16T11:13:28;11.90;59.40
50758;DHT22;36732;47.980;11.652;2024-02-16T11:16:07;12.00;59.60
50758;DHT22;36732;47.980;11.652;2024-02-16T11:18:41;12.00;59.50
50758;DHT22;36732;47.980;11.652;2024-02-16T11:21:12;12.00;59.30
50758;DHT22;36732;47.980;11.652;2024-02-16T11:23:40;12.00;59.50
50758;DHT22;36732;47.980;11.652;2024-02-16T11:26:10;12.00;59.60
50758;DHT22;36732;47.980;11.652;2024-02-16T11:28:38;12.10;59.60
50758;DHT22;36732;47.980;11.652;2024-02-16T11:31:06;12.10;59.60
50758;DHT22;36732;47.980;11.652;2024-02-16T11:33:33;12.10;59.60
50758;DHT22;36732;47.980;11.652;2024-02-16T11:36:04;12.10;60.00
50758;DHT22;36732;47.980;11.652;2024-02-16T11:38:32;12.10;59.80
50758;DHT22;36732;47.980;11.652;2024-02-16T11:41:09;12.20;60.00
50758;DHT22;36732;47.980;11.652;2024-02-16T11:43:35;12.20;59.80
50758;DHT22;36732;47.980;11.652;2024-02-16T11:46:11;12.20;60.50
50758;DHT22;36732;47.980;11.652;2024-02-16T11:48:40;12.20;59.50
50758;DHT22;36732;47.980;11.652;2024-02-16T11:51:06;12.30;59.60
50758;DHT22;36732;47.980;11.652;2024-02-16T11:53:32;12.30;59.70
50758;DHT22;36732;47.980;11.652;2024-02-16T11:55:59;12.30;59.60
50758;DHT22;36732;47.980;11.652;2024-02-16T11:58:25;12.40;59.60
50758;DHT22;36732;47.980;11.652;2024-02-16T12:00:51;12.40;59.60
50758;DHT22;36732;47.980;11.652;2024-02-16T12:03:26;12.40;59.50
50758;DHT22;36732;47.980;11.652;2024-02-16T12:05:57;12.50;59.30
50758;DHT22;36732;47.980;11.652;2024-02-16T12:08:24;12.50;59.50
50758;DHT22;36732;47.980;11.652;2024-02-16T12:10:57;12.50;59.50
50758;DHT22;36732;47.980;11.652;2024-02-16T12:13:23;12.50;59.40
50758;DHT22;36732;47.980;11.652;2024-02-16T12:15:49;12.50;59.50
50758;DHT22;36732;47.980;11.652;2024-02-16T12:18:24;12.60;59.60
50758;DHT22;36732;47.980;11.652;2024-02-16T12:21:05;12.60;59.30
50758;DHT22;36732;47.980;11.652;2024-02-16T12:23:32;12.60;59.30
50758;DHT22;36732;47.980;11.652;2024-02-16T12:25:59;12.70;59.60
50758;DHT22;36732;47.980;11.652;2024-02-16T12:28:27;12.60;59.50
50758;DHT22;36732;47.980;11.652;2024-02-16T12:30:57;12.70;59.60
50758;DHT22;36732;47.980;11.652;2024-02-16T12:33:24;12.70;59.50
50758;DHT22;36732;47.980;11.652;2024-02-16T12:35:50;12.70;59.60
50758;DHT22;36732;47.980;11.652;2024-02-16T12:38:16;12.80;59.60
50758;DHT22;36732;47.980;11.652;2024-02-16T12:40:48;12.80;59.70
50758;DHT22;36732;47.980;11.652;2024-02-16T12:43:14;12.80;59.60
50758;DHT22;36732;47.980;11.652;2024-02-16T12:45:40;12.80;59.80
50758;DHT22;36732;47.980;11.652;2024-02-16T12:48:07;12.80;59.90
50758;DHT22;36732;47.980;11.652;2024-02-16T12:50:34;12.90;60.00
50758;DHT22;36732;47.980;11.652;2024-02-16T12:52:59;12.90;60.00
50758;DHT22;36732;47.980;11.652;2024-02-16T12:55:25;12.90;60.00
50758;DHT22;36732;47.980;11.652;2024-02-16T12:57:51;12.90;60.00
50758;DHT22;36732;47.980;11.652;2024-02-16T13:00:17;12.90;60.00
50758;DHT22;36732;47.980;11.652;2024-02-16T13:02:43;12.90;59.90
50758;DHT22;36732;47.980;11.652;2024-02-16T13:05:09;13.00;60.00
50758;DHT22;36732;47.980;11.652;2024-02-16T13:07:36;13.00;60.00
50758;DHT22;36732;47.980;11.652;2024-02-16T13:10:05;13.00;60.20
50758;DHT22;36732;47.980;11.652;2024-02-16T13:12:31;13.00;60.40
50758;DHT22;36732;47.980;11.652;2024-02-16T13:14:57;13.00;60.30
50758;DHT22;36732;47.980;11.652;2024-02-16T13:17:23;13.00;60.30
50758;DHT22;36732;47.980;11.652;2024-02-16T13:19:49;13.10;60.40
50758;DHT22;36732;47.980;11.652;2024-02-16T13:22:15;13.00;60.60
50758;DHT22;36732;47.980;11.652;2024-02-16T13:24:40;13.10;60.80
50758;DHT22;36732;47.980;11.652;2024-02-16T13:27:07;13.10;60.90
50758;DHT22;36732;47.980;11.652;2024-02-16T13:29:32;13.10;61.00
50758;DHT22;36732;47.980;11.652;2024-02-16T13:31:59;13.10;61.00
50758;DHT22;36732;47.980;11.652;2024-02-16T13:34:25;13.10;60.90
50758;DHT22;36732;47.980;11.652;2024-02-16T13:36:52;13.20;60.90
50758;DHT22;36732;47.980;11.652;2024-02-16T13:39:18;13.10;60.90
50758;DHT22;36732;47.980;11.652;2024-02-16T13:41:45;13.20;60.90
50758;DHT22;36732;47.980;11.652;2024-02-16T13:44:12;13.20;60.90
50758;DHT22;36732;47.980;11.652;2024-02-16T13:46:38;13.20;60.80
50758;DHT22;36732;47.980;11.652;2024-02-16T13:49:04;13.20;60.80
50758;DHT22;36732;47.980;11.652;2024-02-16T13:51:30;13.20;60.80
50758;DHT22;36732;47.980;11.652;2024-02-16T13:53:55;13.30;60.80
50758;DHT22;36732;47.980;11.652;2024-02-16T13:56:21;13.30;60.80
50758;DHT22;36732;47.980;11.652;2024-02-16T13:58:47;13.30;60.80
50758;DHT22;36732;47.980;11.652;2024-02-16T14:01:13;13.30;60.90
50758;DHT22;36732;47.980;11.652;2024-02-16T14:03:40;13.30;60.90
50758;DHT22;36732;47.980;11.652;2024-02-16T14:06:06;13.30;60.80
50758;DHT22;36732;47.980;11.652;2024-02-16T14:08:35;13.40;60.90
50758;DHT22;36732;47.980;11.652;2024-02-16T14:11:01;13.40;61.00
50758;DHT22;36732;47.980;11.652;2024-02-16T14:13:27;13.40;60.90
50758;DHT22;36732;47.980;11.652;2024-02-16T14:15:54;13.40;61.00
50758;DHT22;36732;47.980;11.652;2024-02-16T14:18:19;13.40;60.90
50758;DHT22;36732;47.980;11.652;2024-02-16T14:20:45;13.40;60.90
50758;DHT22;36732;47.980;11.652;2024-02-16T14:23:11;13.40;60.80
50758;DHT22;36732;47.980;11.652;2024-02-16T14:25:37;13.40;60.70
50758;DHT22;36732;47.980;11.652;2024-02-16T14:28:05;13.40;60.60
50758;DHT22;36732;47.980;11.652;2024-02-16T14:30:31;13.50;60.70
50758;DHT22;36732;47.980;11.652;2024-02-16T14:32:58;13.50;60.60
50758;DHT22;36732;47.980;11.652;2024-02-16T14:35:24;13.50;60.60
50758;DHT22;36732;47.980;11.652;2024-02-16T14:37:50;13.40;60.50
50758;DHT22;36732;47.980;11.652;2024-02-16T14:40:15;13.50;60.50
50758;DHT22;36732;47.980;11.652;2024-02-16T14:42:42;13.40;60.30
50758;DHT22;36732;47.980;11.652;2024-02-16T14:45:08;13.50;60.40
50758;DHT22;36732;47.980;11.652;2024-02-16T14:47:36;13.50;60.30
50758;DHT22;36732;47.980;11.652;2024-02-16T14:50:03;13.50;60.40
50758;DHT22;36732;47.980;11.652;2024-02-16T14:52:30;13.50;60.50
50758;DHT22;36732;47.980;11.652;2024-02-16T14:54:55;13.50;60.60
50758;DHT22;36732;47.980;11.652;2024-02-16T14:57:22;13.50;60.60
50758;DHT22;36732;47.980;11.652;2024-02-16T14:59:51;13.50;60.60
50758;DHT22;36732;47.980;11.652;2024-02-16T15:02:21;13.50;60.70
50758;DHT22;36732;47.980;11.652;2024-02-16T15:04:48;13.50;60.80
50758;DHT22;36732;47.980;11.652;2024-02-16T15:07:13;13.50;60.70
50758;DHT22;36732;47.980;11.652;2024-02-16T15:09:39;13.50;60.70
50758;DHT22;36732;47.980;11.652;2024-02-16T15:12:05;13.50;60.80
50758;DHT22;36732;47.980;11.652;2024-02-16T15:14:32;13.50;60.80
50758;DHT22;36732;47.980;11.652;2024-02-16T15:16:59;13.50;60.80
50758;DHT22;36732;47.980;11.652;2024-02-16T15:19:25;13.50;60.70
50758;DHT22;36732;47.980;11.652;2024-02-16T15:21:51;13.50;60.60
50758;DHT22;36732;47.980;11.652;2024-02-16T15:24:17;13.50;60.60
50758;DHT22;36732;47.980;11.652;2024-02-16T15:26:42;13.50;60.60